Terrapin Island — KGDS — position and weather

sailwx.info

Track history (hours):
 
Tides and Currents Weather Stations Pressure Air Temp Water Temp Dewpoint Dewpoint Depression Visibility Wind Speed Wind Dir Waves Ship Positions

Terrapin Island

Owner: Great Lakes Dredge & Dock Company, LLC., Oak Brook, IL. More information available from US FCC via Universal Licensing System and Coast Guard Vessel Documentation Center.

Last reported at 2017-Oct-09 03:43 UTC. Time now 2017-Oct-20 16:11 UTC.
Position N 26°26' W 114°41'.
Warning: this ship's position is 11 days out of date.

Length 106 m; draft 5.5 m.

Type: Dredging. MMSI: 366692000.

Date/timePositionNaut miles runAvg speedWind from/ knotsBaromVisibWave heightAir tempDewpointWater temp
2017-Oct-09 03:43N 26°26' W 114°41'411.4
2017-Oct-09 03:20N 26°30' W 114°43'11011.4
2017-Oct-08 17:40N 27°58' W 115°57'211.8
2017-Oct-08 17:30N 27°59' W 115°58'611.5
2017-Oct-08 16:59N 28°04' W 116°02'511.4
2017-Oct-08 16:30N 28°09' W 116°05'611.3
2017-Oct-08 15:59N 28°14' W 116°09'1511.5
2017-Oct-08 14:41N 28°26' W 116°18'211.3
2017-Oct-08 14:28N 28°28' W 116°20'711.3
2017-Oct-08 13:51N 28°34' W 116°24'411.2
2017-Oct-08 13:30N 28°37' W 116°27'611.5
2017-Oct-08 12:56N 28°42' W 116°31'511.5
2017-Oct-08 12:30N 28°47' W 116°35'611.7
2017-Oct-08 11:59N 28°52' W 116°38'1611.7
2017-Oct-08 10:37N 29°05' W 116°48'411.5
2017-Oct-08 10:16N 29°09' W 116°50'311.5
2017-Oct-08 10:00N 29°11' W 116°52'611.3
2017-Oct-08 09:29N 29°16' W 116°57'711.2
2017-Oct-08 08:51N 29°21' W 117°02'411.3
2017-Oct-08 08:28N 29°25' W 117°05'711.3
2017-Oct-08 07:52N 29°30' W 117°09'411.1
2017-Oct-08 07:28N 29°34' W 117°12'511.1
2017-Oct-08 07:00N 29°38' W 117°15'511.0
2017-Oct-08 06:30N 29°43' W 117°19'611.1
2017-Oct-08 06:00N 29°47' W 117°23'811.3
2017-Oct-08 05:19N 29°54' W 117°27'411.4
2017-Oct-08 05:00N 29°57' W 117°30'611.5
2017-Oct-08 04:30N 30°01' W 117°34'611.3
2017-Oct-08 04:00N 30°06' W 117°37'611.3
2017-Oct-08 03:30N 30°11' W 117°41'611.2
2017-Oct-08 02:58N 30°16' W 117°45'611.2
2017-Oct-08 02:28N 30°20' W 117°48'1411.3
2017-Oct-08 01:16N 30°32' W 117°58'311.2
2017-Oct-08 00:58N 30°34' W 117°60'511.4
2017-Oct-08 00:30N 30°39' W 118°03'711.5
2017-Oct-07 23:53N 30°45' W 118°08'611.6
2017-Oct-07 23:23N 30°49' W 118°12'411.6
2017-Oct-07 23:00N 30°53' W 118°15'611.6
2017-Oct-07 22:30N 30°58' W 118°18'711.5
2017-Oct-07 21:56N 31°03' W 118°23'511.2
2017-Oct-07 21:30N 31°07' W 118°26'611.0
2017-Oct-07 20:57N 31°12' W 118°30'611.2
2017-Oct-07 20:27N 31°17' W 118°34'711.3
2017-Oct-07 19:50N 31°23' W 118°38'411.4
2017-Oct-07 19:30N 31°26' W 118°41'611.2
2017-Oct-07 19:00N 31°30' W 118°45'611.1
2017-Oct-07 18:30N 31°35' W 118°48'611.1
2017-Oct-07 18:00N 31°39' W 118°53'611.0
2017-Oct-07 17:30N 31°44' W 118°56'610.9
2017-Oct-07 17:00N 31°48' W 118°59'611.1
2017-Oct-07 16:30N 31°53' W 119°03'611.1
2017-Oct-07 16:00N 31°58' W 119°07'510.9
2017-Oct-07 15:30N 32°02' W 119°10'611.1
2017-Oct-07 15:00N 32°07' W 119°14'1611.2
2017-Oct-07 13:33N 32°20' W 119°25'111.6
2017-Oct-07 13:29N 32°21' W 119°25'611.5
2017-Oct-07 13:00N 32°25' W 119°29'611.6
2017-Oct-07 12:30N 32°30' W 119°33'1411.0
2017-Oct-07 11:16N 32°41' W 119°42'311.6
2017-Oct-07 11:00N 32°44' W 119°45'611.7
2017-Oct-07 10:28N 32°49' W 119°49'511.8
2017-Oct-07 10:00N 32°53' W 119°53'611.5
2017-Oct-07 09:30N 32°58' W 119°57'611.4
2017-Oct-07 09:00N 33°03' W 120°00'611.3
2017-Oct-07 08:29N 33°07' W 120°04'611.0
2017-Oct-07 07:58N 33°12' W 120°08'510.7
2017-Oct-07 07:28N 33°17' W 120°11'811.3
2017-Oct-07 06:46N 33°23' W 120°16'311.5
2017-Oct-07 06:29N 33°26' W 120°19'611.2
2017-Oct-07 05:59N 33°31' W 120°23'611.4
2017-Oct-07 05:29N 33°35' W 120°27'611.0
2017-Oct-07 04:58N 33°40' W 120°30'511.0
2017-Oct-07 04:30N 33°44' W 120°34'611.5
2017-Oct-07 03:57N 33°49' W 120°39'611.7
2017-Oct-07 03:28N 33°54' W 120°42'511.6
2017-Oct-07 03:00N 33°58' W 120°46'611.3
2017-Oct-07 02:30N 34°03' W 120°50'611.4
2017-Oct-07 01:59N 34°08' W 120°53'611.2
2017-Oct-07 01:28N 34°13' W 120°57'511.1
2017-Oct-07 01:00N 34°17' W 121°01'611.3
2017-Oct-07 00:28N 34°22' W 121°05'611.7
2017-Oct-06 23:59N 34°27' W 121°08'611.6
2017-Oct-06 23:29N 34°32' W 121°12'611.5
2017-Oct-06 23:00N 34°37' W 121°16'611.9
2017-Oct-06 22:30N 34°42' W 121°20'612.3
2017-Oct-06 22:00N 34°47' W 121°23'612.6
2017-Oct-06 21:30N 34°52' W 121°28'612.3
2017-Oct-06 21:00N 34°57' W 121°32'611.9
2017-Oct-06 20:30N 35°02' W 121°36'612.2
2017-Oct-06 20:00N 35°07' W 121°40'611.8
2017-Oct-06 19:30N 35°12' W 121°44'2011.2
2017-Oct-06 17:43N 35°29' W 121°57'811.4
2017-Oct-06 17:03N 35°36' W 122°02'111.3
2017-Oct-06 16:59N 35°37' W 122°02'611.3
2017-Oct-06 16:26N 35°42' W 122°06'811.4
2017-Oct-06 15:44N 35°49' W 122°12'311.6
2017-Oct-06 15:30N 35°51' W 122°13'611.5
2017-Oct-06 15:00N 35°56' W 122°17'611.6
2017-Oct-06 14:30N 36°00' W 122°21'611.9
2017-Oct-06 14:00N 36°05' W 122°25'612.0
2017-Oct-06 13:30N 36°11' W 122°29'611.7
2017-Oct-06 13:00N 36°16' W 122°33'611.7
2017-Oct-06 12:30N 36°20' W 122°37'611.5
2017-Oct-06 12:00N 36°25' W 122°40'611.3
2017-Oct-06 11:30N 36°30' W 122°44'611.3
2017-Oct-06 11:00N 36°35' W 122°48'611.3
2017-Oct-06 10:30N 36°40' W 122°52'611.2
2017-Oct-06 10:00N 36°44' W 122°55'611.3
2017-Oct-06 09:30N 36°49' W 122°59'611.1
2017-Oct-06 09:00N 36°54' W 123°03'611.3
2017-Oct-06 08:30N 36°58' W 123°07'611.2
2017-Oct-06 08:00N 37°03' W 123°11'611.2
2017-Oct-06 07:30N 37°08' W 123°15'611.2
2017-Oct-06 07:00N 37°13' W 123°18'611.4
2017-Oct-06 06:30N 37°17' W 123°22'510.9
2017-Oct-06 06:00N 37°22' W 123°26'510.7
2017-Oct-06 05:30N 37°26' W 123°29'511.0
2017-Oct-06 05:00N 37°31' W 123°33'611.1
2017-Oct-06 04:30N 37°36' W 123°37'611.3
2017-Oct-06 04:00N 37°41' W 123°40'510.9
2017-Oct-06 03:30N 37°46' W 123°43'611.2
2017-Oct-06 03:00N 37°51' W 123°45'611.6
2017-Oct-06 02:30N 37°56' W 123°48'611.7
2017-Oct-06 02:00N 38°02' W 123°50'611.2
2017-Oct-06 01:30N 38°07' W 123°53'611.6
2017-Oct-06 01:00N 38°13' W 123°55'611.7
2017-Oct-06 00:30N 38°18' W 123°58'611.6
2017-Oct-06 00:00N 38°24' W 124°00'611.5
2017-Oct-05 23:30N 38°29' W 124°03'612.0
2017-Oct-05 23:00N 38°35' W 124°05'611.8
2017-Oct-05 22:30N 38°40' W 124°08'612.0
2017-Oct-05 22:00N 38°46' W 124°11'611.8
2017-Oct-05 21:30N 38°51' W 124°13'611.3
2017-Oct-05 20:59N 38°57' W 124°16'20211.1
2017-Oct-05 02:52N 42°15' W 125°07'411.6
2017-Oct-05 02:30N 42°19' W 125°08'13611.4
2017-Oct-04 14:32N 44°34' W 124°40'211.5
2017-Oct-04 14:21N 44°36' W 124°40'611.8
2017-Oct-04 13:49N 44°42' W 124°38'412.0
2017-Oct-04 13:30N 44°46' W 124°36'1117.0
2017-Oct-04 12:52N 44°56' W 124°33'1 3.0
2017-Oct-04 12:30N 44°57' W 124°32'611.5
2017-Oct-04 11:57N 45°03' W 124°30'511.3
2017-Oct-04 11:30N 45°08' W 124°28'611.1
2017-Oct-04 11:00N 45°14' W 124°27'611.2
2017-Oct-04 10:30N 45°19' W 124°26'611.1
2017-Oct-04 10:00N 45°25' W 124°25'611.3
2017-Oct-04 09:30N 45°30' W 124°23'611.2
2017-Oct-04 09:00N 45°36' W 124°21'5 9.8
2017-Oct-04 08:30N 45°40' W 124°19'510.0
2017-Oct-04 08:00N 45°45' W 124°17'811.0
2017-Oct-04 07:15N 45°53' W 124°15'311.2
2017-Oct-04 07:00N 45°56' W 124°14'611.2
2017-Oct-04 06:30N 46°02' W 124°12'611.2
2017-Oct-04 06:00N 46°07' W 124°10'611.3
2017-Oct-04 05:30N 46°13' W 124°09'4 8.9
2017-Oct-04 05:00N 46°15' W 124°04'3 6.6
2017-Oct-04 04:30N 46°14' W 123°59'7 6.7
2017-Oct-04 03:28N 46°12' W 123°50'1 2.2
2017-Oct-04 02:58N 46°12' W 123°48'0 0.0
2017-Oct-04 02:16N 46°12' W 123°48'0 0.0
2017-Oct-04 01:58N 46°12' W 123°48'0 0.0
2017-Oct-04 01:28N 46°12' W 123°48'0 0.0
2017-Oct-04 00:58N 46°12' W 123°48'0 0.0
2017-Oct-04 00:28N 46°12' W 123°48'0 0.0
2017-Oct-03 23:58N 46°12' W 123°48'0 0.0
2017-Oct-03 23:28N 46°12' W 123°48'0 0.0
2017-Oct-03 22:58N 46°12' W 123°48'0 0.0
2017-Oct-03 22:16N 46°12' W 123°48'0 0.0
2017-Oct-03 21:58N 46°12' W 123°48'0 0.1
2017-Oct-03 21:28N 46°12' W 123°48'0 0.2
2017-Oct-03 20:58N 46°12' W 123°48'0 0.0
2017-Oct-03 20:28N 46°12' W 123°48'0 0.0
2017-Oct-03 19:58N 46°12' W 123°48'0 0.1
2017-Oct-03 19:28N 46°12' W 123°48'0 0.1
2017-Oct-03 18:58N 46°12' W 123°48'0 0.0
2017-Oct-03 18:28N 46°12' W 123°48'0 0.0
2017-Oct-03 17:58N 46°12' W 123°48'0 0.0
2017-Oct-03 17:25N 46°12' W 123°48'0 0.0
2017-Oct-03 16:58N 46°12' W 123°48'0 0.1
2017-Oct-03 16:28N 46°12' W 123°48'0 0.0
2017-Oct-03 15:58N 46°12' W 123°48'0 0.2
2017-Oct-03 15:25N 46°12' W 123°48'0 0.0
2017-Oct-03 14:55N 46°12' W 123°48'0 0.0
2017-Oct-03 13:58N 46°12' W 123°48'0 0.0
2017-Oct-03 13:28N 46°12' W 123°48'0 0.0
2017-Oct-03 12:58N 46°12' W 123°48'0 0.0
2017-Oct-03 12:25N 46°12' W 123°48'0 0.0
2017-Oct-03 11:58N 46°12' W 123°48'0 0.0
2017-Oct-03 11:25N 46°12' W 123°48'0 0.0
2017-Oct-03 10:58N 46°12' W 123°48'0 0.0
2017-Oct-03 10:28N 46°12' W 123°48'0 0.0
2017-Oct-03 09:58N 46°12' W 123°48'0 0.0
2017-Oct-03 09:28N 46°12' W 123°48'0 0.0
2017-Oct-03 08:58N 46°12' W 123°48'0 0.1
2017-Oct-03 08:28N 46°12' W 123°48'0 0.1
2017-Oct-03 07:58N 46°12' W 123°48'0 0.2
2017-Oct-03 07:28N 46°12' W 123°48'0 0.0
2017-Oct-03 06:58N 46°12' W 123°48'0 0.0
2017-Oct-03 06:25N 46°12' W 123°48'0 0.0
2017-Oct-03 05:55N 46°12' W 123°48'0 0.0
2017-Oct-03 05:28N 46°12' W 123°48'0 0.0
2017-Oct-03 04:55N 46°12' W 123°48'0 0.0
2017-Oct-03 04:28N 46°12' W 123°48'0 0.0
2017-Oct-03 03:58N 46°12' W 123°48'0 0.3
2017-Oct-03 03:25N 46°12' W 123°48'0 0.1
2017-Oct-03 02:58N 46°12' W 123°48'0 0.0
2017-Oct-03 02:25N 46°12' W 123°48'0 0.0
2017-Oct-03 01:58N 46°12' W 123°48'0 0.0
2017-Oct-03 01:13N 46°12' W 123°48'0 0.0
2017-Oct-03 00:43N 46°12' W 123°48'0 0.0
2017-Oct-03 00:31N 46°12' W 123°48'0 0.0
2017-Oct-02 23:58N 46°12' W 123°48'0 0.0
2017-Oct-02 23:28N 46°12' W 123°48'0 0.0
2017-Oct-02 22:58N 46°12' W 123°48'0 0.0
2017-Oct-02 22:25N 46°12' W 123°48'0 0.0
2017-Oct-02 21:58N 46°12' W 123°48'0 0.0
2017-Oct-02 21:28N 46°12' W 123°48'0 0.0
2017-Oct-02 20:58N 46°12' W 123°48'0 0.3
2017-Oct-02 20:25N 46°12' W 123°48'0 0.0
2017-Oct-02 19:58N 46°12' W 123°48'0 0.0
2017-Oct-02 19:28N 46°12' W 123°48'0 0.0
2017-Oct-02 18:58N 46°12' W 123°48'0 0.0
2017-Oct-02 18:28N 46°12' W 123°48'0 0.0
2017-Oct-02 17:58N 46°12' W 123°48'0 0.0
2017-Oct-02 17:28N 46°12' W 123°48'0 0.0
2017-Oct-02 16:55N 46°12' W 123°48'0 0.0
2017-Oct-02 16:31N 46°12' W 123°48'0 0.1
2017-Oct-02 15:58N 46°12' W 123°48'0 0.1
2017-Oct-02 15:28N 46°12' W 123°48'0 0.1
2017-Oct-02 14:58N 46°12' W 123°48'0 0.1
2017-Oct-02 14:28N 46°12' W 123°48'0 0.1
2017-Oct-02 13:37N 46°12' W 123°49'0 0.0
2017-Oct-02 13:25N 46°12' W 123°49'0 0.0
2017-Oct-02 13:00N 46°12' W 123°49'0 0.0
2017-Oct-02 12:31N 46°12' W 123°49'0 0.0
2017-Oct-02 12:01N 46°12' W 123°49'0 0.0
2017-Oct-02 11:31N 46°12' W 123°49'0 0.0
2017-Oct-02 11:01N 46°12' W 123°49'0 0.0
2017-Oct-02 10:28N 46°12' W 123°49'0 0.0
2017-Oct-02 09:58N 46°12' W 123°49'0 0.0
2017-Oct-02 09:30N 46°12' W 123°49'0 0.0
2017-Oct-02 08:58N 46°12' W 123°49'0 0.0
2017-Oct-02 08:31N 46°12' W 123°49'0 0.1
2017-Oct-02 08:01N 46°12' W 123°48'4 7.8
2017-Oct-02 07:30N 46°11' W 123°54'4 7.1
2017-Oct-02 07:00N 46°14' W 123°58'4 7.1
2017-Oct-02 06:30N 46°11' W 123°54'0 0.2
2017-Oct-02 06:00N 46°11' W 123°54'1 1.5
2017-Oct-02 05:30N 46°12' W 123°53'4 7.0
2017-Oct-02 04:56N 46°13' W 123°58'3 7.5
2017-Oct-02 04:30N 46°11' W 123°54'1 1.8
2017-Oct-02 04:01N 46°11' W 123°53'1 2.7
2017-Oct-02 03:30N 46°11' W 123°55'3 6.0
2017-Oct-02 03:00N 46°13' W 123°58'4 7.0
2017-Oct-02 02:30N 46°12' W 123°53'0 0.9
2017-Oct-02 02:00N 46°12' W 123°53'1 1.5
2017-Oct-02 01:30N 46°11' W 123°54'3 6.5
2017-Oct-02 01:01N 46°13' W 123°58'2 4.2
2017-Oct-02 00:31N 46°12' W 123°56'2 3.5
2017-Oct-02 00:00N 46°11' W 123°53'0 0.4
2017-Oct-01 23:30N 46°12' W 123°53'0 0.7
2017-Oct-01 23:00N 46°12' W 123°53'1 1.1
2017-Oct-01 22:30N 46°11' W 123°54'1 0.7
2017-Oct-01 21:26N 46°11' W 123°53'0 0.2
2017-Oct-01 21:00N 46°11' W 123°53'0 1.0
2017-Oct-01 20:31N 46°11' W 123°54'0 0.4
2017-Oct-01 20:00N 46°12' W 123°53'1 1.3
2017-Oct-01 19:30N 46°11' W 123°54'3 6.1
2017-Oct-01 19:00N 46°13' W 123°58'3 6.5
2017-Oct-01 18:30N 46°11' W 123°54'0 0.8
2017-Oct-01 18:01N 46°12' W 123°53'1 2.9
2017-Oct-01 17:30N 46°12' W 123°55'2 3.8
2017-Oct-01 17:01N 46°13' W 123°57'3 5.5
2017-Oct-01 16:26N 46°12' W 123°53'0 0.8
2017-Oct-01 16:01N 46°12' W 123°53'1 1.6
2017-Oct-01 15:31N 46°11' W 123°54'4 7.2
2017-Oct-01 15:01N 46°14' W 123°58'3 6.5
2017-Oct-01 14:31N 46°11' W 123°54'1 2.2
2017-Oct-01 14:01N 46°12' W 123°53'1 1.2
2017-Oct-01 13:31N 46°11' W 123°54'2 4.7
2017-Oct-01 13:00N 46°12' W 123°57'0 0.1
2017-Oct-01 12:31N 46°12' W 123°57'3 5.0
2017-Oct-01 12:00N 46°11' W 123°53'0 0.1
2017-Oct-01 11:31N 46°11' W 123°53'1 1.0
2017-Oct-01 11:00N 46°11' W 123°54'3 5.2
2017-Oct-01 10:30N 46°13' W 123°57'1 1.7
2017-Oct-01 10:01N 46°12' W 123°56'2 4.5
2017-Oct-01 09:31N 46°11' W 123°53'0 0.8
2017-Oct-01 09:01N 46°11' W 123°54'2 3.9
2017-Oct-01 08:30N 46°12' W 123°56'0 0.6
2017-Oct-01 08:00N 46°12' W 123°57'3 5.3
2017-Oct-01 07:30N 46°11' W 123°53'0 0.9
2017-Oct-01 07:00N 46°11' W 123°54'2 4.4
2017-Oct-01 06:31N 46°12' W 123°57'0 0.5
2017-Oct-01 06:00N 46°12' W 123°56'2 4.9
2017-Oct-01 05:31N 46°11' W 123°53'1 1.8
2017-Oct-01 05:00N 46°11' W 123°54'3 5.6
2017-Oct-01 04:30N 46°13' W 123°57'3 7.0
2017-Oct-01 04:00N 46°12' W 123°53'2 1.9
2017-Oct-01 03:08N 46°12' W 123°55'111.7
2017-Oct-01 03:00N 46°13' W 123°57'12 0.5
2017-Sep-30 02:00N 46°11' W 124°14'4 8.6
2017-Sep-30 01:30N 46°14' W 124°09'4 7.2
2017-Sep-30 01:00N 46°15' W 124°04'0 0.8
2017-Sep-30 00:30N 46°15' W 124°05'1 1.3
2017-Sep-30 00:00N 46°15' W 124°04'3 6.2
2017-Sep-29 23:30N 46°14' W 124°08'5 9.8
2017-Sep-29 23:00N 46°12' W 124°14'2 4.4
2017-Sep-29 22:30N 46°12' W 124°11'510.5
2017-Sep-29 22:00N 46°15' W 124°05'0 0.9
2017-Sep-29 21:30N 46°15' W 124°04'0 0.2
2017-Sep-29 21:00N 46°15' W 124°04'1 1.0
2017-Sep-29 20:30N 46°15' W 124°05'0 0.7
2017-Sep-29 20:00N 46°15' W 124°05'1 1.6
2017-Sep-29 19:30N 46°15' W 124°04'0 0.2
2017-Sep-29 19:00N 46°15' W 124°04'1 1.3
2017-Sep-29 18:30N 46°15' W 124°05'1 1.8
2017-Sep-29 18:01N 46°16' W 124°06'2 3.1
2017-Sep-29 17:30N 46°15' W 124°04'0 0.9
2017-Sep-29 17:00N 46°15' W 124°04'1 2.6
2017-Sep-29 16:31N 46°15' W 124°06'2 2.1
2017-Sep-29 15:42N 46°15' W 124°04'0 1.8
2017-Sep-29 15:30N 46°15' W 124°04'1 2.0
2017-Sep-29 15:00N 46°15' W 124°06'1 2.2
2017-Sep-29 14:30N 46°15' W 124°04'0 0.3
2017-Sep-29 14:00N 46°15' W 124°04'2 3.7
2017-Sep-29 13:30N 46°15' W 124°07'2 3.1
2017-Sep-29 13:00N 46°15' W 124°04'0 0.8
2017-Sep-29 12:30N 46°15' W 124°04'1 1.8
2017-Sep-29 12:00N 46°15' W 124°05'1 2.1
2017-Sep-29 11:30N 46°15' W 124°04'1 1.1
2017-Sep-29 11:00N 46°15' W 124°04'1 2.8
2017-Sep-29 10:30N 46°15' W 124°06'2 3.4
2017-Sep-29 10:00N 46°15' W 124°04'0 0.2
2017-Sep-29 09:30N 46°15' W 124°04'1 1.0
2017-Sep-29 09:00N 46°15' W 124°05'0 0.9
2017-Sep-29 08:30N 46°15' W 124°05'1 1.5
2017-Sep-29 08:01N 46°15' W 124°04'0 0.3
2017-Sep-29 07:30N 46°15' W 124°04'1 1.1
2017-Sep-29 07:00N 46°15' W 124°05'3 6.7
2017-Sep-29 06:30N 46°14' W 124°09'4 8.8
2017-Sep-29 06:00N 46°11' W 124°15'3 5.9
2017-Sep-29 05:30N 46°13' W 124°11'510.8
2017-Sep-29 05:00N 46°15' W 124°04'0 0.3
2017-Sep-29 04:30N 46°15' W 124°04'1 1.8
2017-Sep-29 04:00N 46°15' W 124°05'  
Track history (hours):
 
Tides and Currents Weather Stations Pressure Air Temp Water Temp Dewpoint Dewpoint Depression Visibility Wind Speed Wind Dir Waves Ship Positions

Terrapin Island

Owner: Great Lakes Dredge & Dock Company, LLC., Oak Brook, IL. More information available from US FCC via Universal Licensing System and Coast Guard Vessel Documentation Center.

Last reported at 2017-Oct-09 03:43 UTC. Time now 2017-Oct-20 16:11 UTC.
Position N 26°26' W 114°41'.
Warning: this ship's position is 11 days out of date.

Length 106 m; draft 5.5 m.

Type: Dredging. MMSI: 366692000.

Date/timePositionNaut miles runAvg speedWind from/ knotsBaromVisibWave heightAir tempDewpointWater temp
2017-Oct-09 03:43N 26°26' W 114°41'411.4
2017-Oct-09 03:20N 26°30' W 114°43'11011.4
2017-Oct-08 17:40N 27°58' W 115°57'211.8
2017-Oct-08 17:30N 27°59' W 115°58'611.5
2017-Oct-08 16:59N 28°04' W 116°02'511.4
2017-Oct-08 16:30N 28°09' W 116°05'611.3
2017-Oct-08 15:59N 28°14' W 116°09'1511.5
2017-Oct-08 14:41N 28°26' W 116°18'211.3
2017-Oct-08 14:28N 28°28' W 116°20'711.3
2017-Oct-08 13:51N 28°34' W 116°24'411.2
2017-Oct-08 13:30N 28°37' W 116°27'611.5
2017-Oct-08 12:56N 28°42' W 116°31'511.5
2017-Oct-08 12:30N 28°47' W 116°35'611.7
2017-Oct-08 11:59N 28°52' W 116°38'1611.7
2017-Oct-08 10:37N 29°05' W 116°48'411.5
2017-Oct-08 10:16N 29°09' W 116°50'311.5
2017-Oct-08 10:00N 29°11' W 116°52'611.3
2017-Oct-08 09:29N 29°16' W 116°57'711.2
2017-Oct-08 08:51N 29°21' W 117°02'411.3
2017-Oct-08 08:28N 29°25' W 117°05'711.3
2017-Oct-08 07:52N 29°30' W 117°09'411.1
2017-Oct-08 07:28N 29°34' W 117°12'511.1
2017-Oct-08 07:00N 29°38' W 117°15'511.0
2017-Oct-08 06:30N 29°43' W 117°19'611.1
2017-Oct-08 06:00N 29°47' W 117°23'811.3
2017-Oct-08 05:19N 29°54' W 117°27'411.4
2017-Oct-08 05:00N 29°57' W 117°30'611.5
2017-Oct-08 04:30N 30°01' W 117°34'611.3
2017-Oct-08 04:00N 30°06' W 117°37'611.3
2017-Oct-08 03:30N 30°11' W 117°41'611.2
2017-Oct-08 02:58N 30°16' W 117°45'611.2
2017-Oct-08 02:28N 30°20' W 117°48'1411.3
2017-Oct-08 01:16N 30°32' W 117°58'311.2
2017-Oct-08 00:58N 30°34' W 117°60'511.4
2017-Oct-08 00:30N 30°39' W 118°03'711.5
2017-Oct-07 23:53N 30°45' W 118°08'611.6
2017-Oct-07 23:23N 30°49' W 118°12'411.6
2017-Oct-07 23:00N 30°53' W 118°15'611.6
2017-Oct-07 22:30N 30°58' W 118°18'711.5
2017-Oct-07 21:56N 31°03' W 118°23'511.2
2017-Oct-07 21:30N 31°07' W 118°26'611.0
2017-Oct-07 20:57N 31°12' W 118°30'611.2
2017-Oct-07 20:27N 31°17' W 118°34'711.3
2017-Oct-07 19:50N 31°23' W 118°38'411.4
2017-Oct-07 19:30N 31°26' W 118°41'611.2
2017-Oct-07 19:00N 31°30' W 118°45'611.1
2017-Oct-07 18:30N 31°35' W 118°48'611.1
2017-Oct-07 18:00N 31°39' W 118°53'611.0
2017-Oct-07 17:30N 31°44' W 118°56'610.9
2017-Oct-07 17:00N 31°48' W 118°59'611.1
2017-Oct-07 16:30N 31°53' W 119°03'611.1
2017-Oct-07 16:00N 31°58' W 119°07'510.9
2017-Oct-07 15:30N 32°02' W 119°10'611.1
2017-Oct-07 15:00N 32°07' W 119°14'1611.2
2017-Oct-07 13:33N 32°20' W 119°25'111.6
2017-Oct-07 13:29N 32°21' W 119°25'611.5
2017-Oct-07 13:00N 32°25' W 119°29'611.6
2017-Oct-07 12:30N 32°30' W 119°33'1411.0
2017-Oct-07 11:16N 32°41' W 119°42'311.6
2017-Oct-07 11:00N 32°44' W 119°45'611.7
2017-Oct-07 10:28N 32°49' W 119°49'511.8
2017-Oct-07 10:00N 32°53' W 119°53'611.5
2017-Oct-07 09:30N 32°58' W 119°57'611.4
2017-Oct-07 09:00N 33°03' W 120°00'611.3
2017-Oct-07 08:29N 33°07' W 120°04'611.0
2017-Oct-07 07:58N 33°12' W 120°08'510.7
2017-Oct-07 07:28N 33°17' W 120°11'811.3
2017-Oct-07 06:46N 33°23' W 120°16'311.5
2017-Oct-07 06:29N 33°26' W 120°19'611.2
2017-Oct-07 05:59N 33°31' W 120°23'611.4
2017-Oct-07 05:29N 33°35' W 120°27'611.0
2017-Oct-07 04:58N 33°40' W 120°30'511.0
2017-Oct-07 04:30N 33°44' W 120°34'611.5
2017-Oct-07 03:57N 33°49' W 120°39'611.7
2017-Oct-07 03:28N 33°54' W 120°42'511.6
2017-Oct-07 03:00N 33°58' W 120°46'611.3
2017-Oct-07 02:30N 34°03' W 120°50'611.4
2017-Oct-07 01:59N 34°08' W 120°53'611.2
2017-Oct-07 01:28N 34°13' W 120°57'511.1
2017-Oct-07 01:00N 34°17' W 121°01'611.3
2017-Oct-07 00:28N 34°22' W 121°05'611.7
2017-Oct-06 23:59N 34°27' W 121°08'611.6
2017-Oct-06 23:29N 34°32' W 121°12'611.5
2017-Oct-06 23:00N 34°37' W 121°16'611.9
2017-Oct-06 22:30N 34°42' W 121°20'612.3
2017-Oct-06 22:00N 34°47' W 121°23'612.6
2017-Oct-06 21:30N 34°52' W 121°28'612.3
2017-Oct-06 21:00N 34°57' W 121°32'611.9
2017-Oct-06 20:30N 35°02' W 121°36'612.2
2017-Oct-06 20:00N 35°07' W 121°40'611.8
2017-Oct-06 19:30N 35°12' W 121°44'2011.2
2017-Oct-06 17:43N 35°29' W 121°57'811.4
2017-Oct-06 17:03N 35°36' W 122°02'111.3
2017-Oct-06 16:59N 35°37' W 122°02'611.3
2017-Oct-06 16:26N 35°42' W 122°06'811.4
2017-Oct-06 15:44N 35°49' W 122°12'311.6
2017-Oct-06 15:30N 35°51' W 122°13'611.5
2017-Oct-06 15:00N 35°56' W 122°17'611.6
2017-Oct-06 14:30N 36°00' W 122°21'611.9
2017-Oct-06 14:00N 36°05' W 122°25'612.0
2017-Oct-06 13:30N 36°11' W 122°29'611.7
2017-Oct-06 13:00N 36°16' W 122°33'611.7
2017-Oct-06 12:30N 36°20' W 122°37'611.5
2017-Oct-06 12:00N 36°25' W 122°40'611.3
2017-Oct-06 11:30N 36°30' W 122°44'611.3
2017-Oct-06 11:00N 36°35' W 122°48'611.3
2017-Oct-06 10:30N 36°40' W 122°52'611.2
2017-Oct-06 10:00N 36°44' W 122°55'611.3
2017-Oct-06 09:30N 36°49' W 122°59'611.1
2017-Oct-06 09:00N 36°54' W 123°03'611.3
2017-Oct-06 08:30N 36°58' W 123°07'611.2
2017-Oct-06 08:00N 37°03' W 123°11'611.2
2017-Oct-06 07:30N 37°08' W 123°15'611.2
2017-Oct-06 07:00N 37°13' W 123°18'611.4
2017-Oct-06 06:30N 37°17' W 123°22'510.9
2017-Oct-06 06:00N 37°22' W 123°26'510.7
2017-Oct-06 05:30N 37°26' W 123°29'511.0
2017-Oct-06 05:00N 37°31' W 123°33'611.1
2017-Oct-06 04:30N 37°36' W 123°37'611.3
2017-Oct-06 04:00N 37°41' W 123°40'510.9
2017-Oct-06 03:30N 37°46' W 123°43'611.2
2017-Oct-06 03:00N 37°51' W 123°45'611.6
2017-Oct-06 02:30N 37°56' W 123°48'611.7
2017-Oct-06 02:00N 38°02' W 123°50'611.2
2017-Oct-06 01:30N 38°07' W 123°53'611.6
2017-Oct-06 01:00N 38°13' W 123°55'611.7
2017-Oct-06 00:30N 38°18' W 123°58'611.6
2017-Oct-06 00:00N 38°24' W 124°00'611.5
2017-Oct-05 23:30N 38°29' W 124°03'612.0
2017-Oct-05 23:00N 38°35' W 124°05'611.8
2017-Oct-05 22:30N 38°40' W 124°08'612.0
2017-Oct-05 22:00N 38°46' W 124°11'611.8
2017-Oct-05 21:30N 38°51' W 124°13'611.3
2017-Oct-05 20:59N 38°57' W 124°16'20211.1
2017-Oct-05 02:52N 42°15' W 125°07'411.6
2017-Oct-05 02:30N 42°19' W 125°08'13611.4
2017-Oct-04 14:32N 44°34' W 124°40'211.5
2017-Oct-04 14:21N 44°36' W 124°40'611.8
2017-Oct-04 13:49N 44°42' W 124°38'412.0
2017-Oct-04 13:30N 44°46' W 124°36'1117.0
2017-Oct-04 12:52N 44°56' W 124°33'1 3.0
2017-Oct-04 12:30N 44°57' W 124°32'611.5
2017-Oct-04 11:57N 45°03' W 124°30'511.3
2017-Oct-04 11:30N 45°08' W 124°28'611.1
2017-Oct-04 11:00N 45°14' W 124°27'611.2
2017-Oct-04 10:30N 45°19' W 124°26'611.1
2017-Oct-04 10:00N 45°25' W 124°25'611.3
2017-Oct-04 09:30N 45°30' W 124°23'611.2
2017-Oct-04 09:00N 45°36' W 124°21'5 9.8
2017-Oct-04 08:30N 45°40' W 124°19'510.0
2017-Oct-04 08:00N 45°45' W 124°17'811.0
2017-Oct-04 07:15N 45°53' W 124°15'311.2
2017-Oct-04 07:00N 45°56' W 124°14'611.2
2017-Oct-04 06:30N 46°02' W 124°12'611.2
2017-Oct-04 06:00N 46°07' W 124°10'611.3
2017-Oct-04 05:30N 46°13' W 124°09'4 8.9
2017-Oct-04 05:00N 46°15' W 124°04'3 6.6
2017-Oct-04 04:30N 46°14' W 123°59'7 6.7
2017-Oct-04 03:28N 46°12' W 123°50'1 2.2
2017-Oct-04 02:58N 46°12' W 123°48'0 0.0
2017-Oct-04 02:16N 46°12' W 123°48'0 0.0
2017-Oct-04 01:58N 46°12' W 123°48'0 0.0
2017-Oct-04 01:28N 46°12' W 123°48'0 0.0
2017-Oct-04 00:58N 46°12' W 123°48'0 0.0
2017-Oct-04 00:28N 46°12' W 123°48'0 0.0
2017-Oct-03 23:58N 46°12' W 123°48'0 0.0
2017-Oct-03 23:28N 46°12' W 123°48'0 0.0
2017-Oct-03 22:58N 46°12' W 123°48'0 0.0
2017-Oct-03 22:16N 46°12' W 123°48'0 0.0
2017-Oct-03 21:58N 46°12' W 123°48'0 0.1
2017-Oct-03 21:28N 46°12' W 123°48'0 0.2
2017-Oct-03 20:58N 46°12' W 123°48'0 0.0
2017-Oct-03 20:28N 46°12' W 123°48'0 0.0
2017-Oct-03 19:58N 46°12' W 123°48'0 0.1
2017-Oct-03 19:28N 46°12' W 123°48'0 0.1
2017-Oct-03 18:58N 46°12' W 123°48'0 0.0
2017-Oct-03 18:28N 46°12' W 123°48'0 0.0
2017-Oct-03 17:58N 46°12' W 123°48'0 0.0
2017-Oct-03 17:25N 46°12' W 123°48'0 0.0
2017-Oct-03 16:58N 46°12' W 123°48'0 0.1
2017-Oct-03 16:28N 46°12' W 123°48'0 0.0
2017-Oct-03 15:58N 46°12' W 123°48'0 0.2
2017-Oct-03 15:25N 46°12' W 123°48'0 0.0
2017-Oct-03 14:55N 46°12' W 123°48'0 0.0
2017-Oct-03 13:58N 46°12' W 123°48'0 0.0
2017-Oct-03 13:28N 46°12' W 123°48'0 0.0
2017-Oct-03 12:58N 46°12' W 123°48'0 0.0
2017-Oct-03 12:25N 46°12' W 123°48'0 0.0
2017-Oct-03 11:58N 46°12' W 123°48'0 0.0
2017-Oct-03 11:25N 46°12' W 123°48'0 0.0
2017-Oct-03 10:58N 46°12' W 123°48'0 0.0
2017-Oct-03 10:28N 46°12' W 123°48'0 0.0
2017-Oct-03 09:58N 46°12' W 123°48'0 0.0
2017-Oct-03 09:28N 46°12' W 123°48'0 0.0
2017-Oct-03 08:58N 46°12' W 123°48'0 0.1
2017-Oct-03 08:28N 46°12' W 123°48'0 0.1
2017-Oct-03 07:58N 46°12' W 123°48'0 0.2
2017-Oct-03 07:28N 46°12' W 123°48'0 0.0
2017-Oct-03 06:58N 46°12' W 123°48'0 0.0
2017-Oct-03 06:25N 46°12' W 123°48'0 0.0
2017-Oct-03 05:55N 46°12' W 123°48'0 0.0
2017-Oct-03 05:28N 46°12' W 123°48'0 0.0
2017-Oct-03 04:55N 46°12' W 123°48'0 0.0
2017-Oct-03 04:28N 46°12' W 123°48'0 0.0
2017-Oct-03 03:58N 46°12' W 123°48'0 0.3
2017-Oct-03 03:25N 46°12' W 123°48'0 0.1
2017-Oct-03 02:58N 46°12' W 123°48'0 0.0
2017-Oct-03 02:25N 46°12' W 123°48'0 0.0
2017-Oct-03 01:58N 46°12' W 123°48'0 0.0
2017-Oct-03 01:13N 46°12' W 123°48'0 0.0
2017-Oct-03 00:43N 46°12' W 123°48'0 0.0
2017-Oct-03 00:31N 46°12' W 123°48'0 0.0
2017-Oct-02 23:58N 46°12' W 123°48'0 0.0
2017-Oct-02 23:28N 46°12' W 123°48'0 0.0
2017-Oct-02 22:58N 46°12' W 123°48'0 0.0
2017-Oct-02 22:25N 46°12' W 123°48'0 0.0
2017-Oct-02 21:58N 46°12' W 123°48'0 0.0
2017-Oct-02 21:28N 46°12' W 123°48'0 0.0
2017-Oct-02 20:58N 46°12' W 123°48'0 0.3
2017-Oct-02 20:25N 46°12' W 123°48'0 0.0
2017-Oct-02 19:58N 46°12' W 123°48'0 0.0
2017-Oct-02 19:28N 46°12' W 123°48'0 0.0
2017-Oct-02 18:58N 46°12' W 123°48'0 0.0
2017-Oct-02 18:28N 46°12' W 123°48'0 0.0
2017-Oct-02 17:58N 46°12' W 123°48'0 0.0
2017-Oct-02 17:28N 46°12' W 123°48'0 0.0
2017-Oct-02 16:55N 46°12' W 123°48'0 0.0
2017-Oct-02 16:31N 46°12' W 123°48'0 0.1
2017-Oct-02 15:58N 46°12' W 123°48'0 0.1
2017-Oct-02 15:28N 46°12' W 123°48'0 0.1
2017-Oct-02 14:58N 46°12' W 123°48'0 0.1
2017-Oct-02 14:28N 46°12' W 123°48'0 0.1
2017-Oct-02 13:37N 46°12' W 123°49'0 0.0
2017-Oct-02 13:25N 46°12' W 123°49'0 0.0
2017-Oct-02 13:00N 46°12' W 123°49'0 0.0
2017-Oct-02 12:31N 46°12' W 123°49'0 0.0
2017-Oct-02 12:01N 46°12' W 123°49'0 0.0
2017-Oct-02 11:31N 46°12' W 123°49'0 0.0
2017-Oct-02 11:01N 46°12' W 123°49'0 0.0
2017-Oct-02 10:28N 46°12' W 123°49'0 0.0
2017-Oct-02 09:58N 46°12' W 123°49'0 0.0
2017-Oct-02 09:30N 46°12' W 123°49'0 0.0
2017-Oct-02 08:58N 46°12' W 123°49'0 0.0
2017-Oct-02 08:31N 46°12' W 123°49'0 0.1
2017-Oct-02 08:01N 46°12' W 123°48'4 7.8
2017-Oct-02 07:30N 46°11' W 123°54'4 7.1
2017-Oct-02 07:00N 46°14' W 123°58'4 7.1
2017-Oct-02 06:30N 46°11' W 123°54'0 0.2
2017-Oct-02 06:00N 46°11' W 123°54'1 1.5
2017-Oct-02 05:30N 46°12' W 123°53'4 7.0
2017-Oct-02 04:56N 46°13' W 123°58'3 7.5
2017-Oct-02 04:30N 46°11' W 123°54'1 1.8
2017-Oct-02 04:01N 46°11' W 123°53'1 2.7
2017-Oct-02 03:30N 46°11' W 123°55'3 6.0
2017-Oct-02 03:00N 46°13' W 123°58'4 7.0
2017-Oct-02 02:30N 46°12' W 123°53'0 0.9
2017-Oct-02 02:00N 46°12' W 123°53'1 1.5
2017-Oct-02 01:30N 46°11' W 123°54'3 6.5
2017-Oct-02 01:01N 46°13' W 123°58'2 4.2
2017-Oct-02 00:31N 46°12' W 123°56'2 3.5
2017-Oct-02 00:00N 46°11' W 123°53'0 0.4
2017-Oct-01 23:30N 46°12' W 123°53'0 0.7
2017-Oct-01 23:00N 46°12' W 123°53'1 1.1
2017-Oct-01 22:30N 46°11' W 123°54'1 0.7
2017-Oct-01 21:26N 46°11' W 123°53'0 0.2
2017-Oct-01 21:00N 46°11' W 123°53'0 1.0
2017-Oct-01 20:31N 46°11' W 123°54'0 0.4
2017-Oct-01 20:00N 46°12' W 123°53'1 1.3
2017-Oct-01 19:30N 46°11' W 123°54'3 6.1
2017-Oct-01 19:00N 46°13' W 123°58'3 6.5
2017-Oct-01 18:30N 46°11' W 123°54'0 0.8
2017-Oct-01 18:01N 46°12' W 123°53'1 2.9
2017-Oct-01 17:30N 46°12' W 123°55'2 3.8
2017-Oct-01 17:01N 46°13' W 123°57'3 5.5
2017-Oct-01 16:26N 46°12' W 123°53'0 0.8
2017-Oct-01 16:01N 46°12' W 123°53'1 1.6
2017-Oct-01 15:31N 46°11' W 123°54'4 7.2
2017-Oct-01 15:01N 46°14' W 123°58'3 6.5
2017-Oct-01 14:31N 46°11' W 123°54'1 2.2
2017-Oct-01 14:01N 46°12' W 123°53'1 1.2
2017-Oct-01 13:31N 46°11' W 123°54'2 4.7
2017-Oct-01 13:00N 46°12' W 123°57'0 0.1
2017-Oct-01 12:31N 46°12' W 123°57'3 5.0
2017-Oct-01 12:00N 46°11' W 123°53'0 0.1
2017-Oct-01 11:31N 46°11' W 123°53'1 1.0
2017-Oct-01 11:00N 46°11' W 123°54'3 5.2
2017-Oct-01 10:30N 46°13' W 123°57'1 1.7
2017-Oct-01 10:01N 46°12' W 123°56'2 4.5
2017-Oct-01 09:31N 46°11' W 123°53'0 0.8
2017-Oct-01 09:01N 46°11' W 123°54'2 3.9
2017-Oct-01 08:30N 46°12' W 123°56'0 0.6
2017-Oct-01 08:00N 46°12' W 123°57'3 5.3
2017-Oct-01 07:30N 46°11' W 123°53'0 0.9
2017-Oct-01 07:00N 46°11' W 123°54'2 4.4
2017-Oct-01 06:31N 46°12' W 123°57'0 0.5
2017-Oct-01 06:00N 46°12' W 123°56'2 4.9
2017-Oct-01 05:31N 46°11' W 123°53'1 1.8
2017-Oct-01 05:00N 46°11' W 123°54'3 5.6
2017-Oct-01 04:30N 46°13' W 123°57'3 7.0
2017-Oct-01 04:00N 46°12' W 123°53'2 1.9
2017-Oct-01 03:08N 46°12' W 123°55'111.7
2017-Oct-01 03:00N 46°13' W 123°57'12 0.5
2017-Sep-30 02:00N 46°11' W 124°14'4 8.6
2017-Sep-30 01:30N 46°14' W 124°09'4 7.2
2017-Sep-30 01:00N 46°15' W 124°04'0 0.8
2017-Sep-30 00:30N 46°15' W 124°05'1 1.3
2017-Sep-30 00:00N 46°15' W 124°04'3 6.2
2017-Sep-29 23:30N 46°14' W 124°08'5 9.8
2017-Sep-29 23:00N 46°12' W 124°14'2 4.4
2017-Sep-29 22:30N 46°12' W 124°11'510.5
2017-Sep-29 22:00N 46°15' W 124°05'0 0.9
2017-Sep-29 21:30N 46°15' W 124°04'0 0.2
2017-Sep-29 21:00N 46°15' W 124°04'1 1.0
2017-Sep-29 20:30N 46°15' W 124°05'0 0.7
2017-Sep-29 20:00N 46°15' W 124°05'1 1.6
2017-Sep-29 19:30N 46°15' W 124°04'0 0.2
2017-Sep-29 19:00N 46°15' W 124°04'1 1.3
2017-Sep-29 18:30N 46°15' W 124°05'1 1.8
2017-Sep-29 18:01N 46°16' W 124°06'2 3.1
2017-Sep-29 17:30N 46°15' W 124°04'0 0.9
2017-Sep-29 17:00N 46°15' W 124°04'1 2.6
2017-Sep-29 16:31N 46°15' W 124°06'2 2.1
2017-Sep-29 15:42N 46°15' W 124°04'0 1.8
2017-Sep-29 15:30N 46°15' W 124°04'1 2.0
2017-Sep-29 15:00N 46°15' W 124°06'1 2.2
2017-Sep-29 14:30N 46°15' W 124°04'0 0.3
2017-Sep-29 14:00N 46°15' W 124°04'2 3.7
2017-Sep-29 13:30N 46°15' W 124°07'2 3.1
2017-Sep-29 13:00N 46°15' W 124°04'0 0.8
2017-Sep-29 12:30N 46°15' W 124°04'1 1.8
2017-Sep-29 12:00N 46°15' W 124°05'1 2.1
2017-Sep-29 11:30N 46°15' W 124°04'1 1.1
2017-Sep-29 11:00N 46°15' W 124°04'1 2.8
2017-Sep-29 10:30N 46°15' W 124°06'2 3.4
2017-Sep-29 10:00N 46°15' W 124°04'0 0.2
2017-Sep-29 09:30N 46°15' W 124°04'1 1.0
2017-Sep-29 09:00N 46°15' W 124°05'0 0.9
2017-Sep-29 08:30N 46°15' W 124°05'1 1.5
2017-Sep-29 08:01N 46°15' W 124°04'0 0.3
2017-Sep-29 07:30N 46°15' W 124°04'1 1.1
2017-Sep-29 07:00N 46°15' W 124°05'3 6.7
2017-Sep-29 06:30N 46°14' W 124°09'4 8.8
2017-Sep-29 06:00N 46°11' W 124°15'3 5.9
2017-Sep-29 05:30N 46°13' W 124°11'510.8
2017-Sep-29 05:00N 46°15' W 124°04'0 0.3
2017-Sep-29 04:30N 46°15' W 124°04'1 1.8
2017-Sep-29 04:00N 46°15' W 124°05'  

Dump ship's entire track history